Terminal Aerodrome Forecast
Issued by NWS Portland, OR

Home | Current Version | Previous Version | Text Only | Print | Product List | Glossary On
Versions: 1 2 3 4 5 6 7 8 9 10 11 12 13
000
FTUS46 KPQR 222324
TAFAST
TAF
KAST 222324Z 2300/2324 23006KT P6SM VCSH BKN035 BKN060
     FM230300 VRB03KT P6SM SCT020 OVC060
     FM231200 VRB03KT 4SM BR SCT060
     FM231900 03005KT P6SM SKC=

USA.gov is the U.S. government's official web portal to all federal, state and local government web resources and services.